createdAt,value
2022-08-20T00:00:41.479Z,21.47
2022-08-20T00:03:13.973Z,21.48
2022-08-20T00:05:44.620Z,21.48
2022-08-20T00:08:11.615Z,21.46
2022-08-20T00:10:41.647Z,21.45
2022-08-20T00:13:10.734Z,21.42
2022-08-20T00:15:42.411Z,21.43
2022-08-20T00:18:09.049Z,21.44
2022-08-20T00:20:43.437Z,21.41
2022-08-20T00:23:10.796Z,21.38
2022-08-20T00:25:38.849Z,21.33
2022-08-20T00:28:07.056Z,21.19
2022-08-20T00:30:35.559Z,21.26
2022-08-20T00:33:08.424Z,21.28
2022-08-20T00:35:37.418Z,21.17
2022-08-20T00:38:04.773Z,21.05
2022-08-20T00:40:36.150Z,21.14
2022-08-20T00:43:06.418Z,21.07
2022-08-20T00:45:35.615Z,20.87
2022-08-20T00:48:02.301Z,20.93
2022-08-20T00:50:34.185Z,20.99
2022-08-20T00:53:02.826Z,20.99
2022-08-20T00:55:31.756Z,20.92
2022-08-20T00:58:03.687Z,20.89
2022-08-20T01:00:35.726Z,20.84
2022-08-20T01:03:02.254Z,20.86
2022-08-20T01:05:30.196Z,20.91
2022-08-20T01:07:57.733Z,20.85
2022-08-20T01:10:28.502Z,20.83
2022-08-20T01:12:59.630Z,20.82
2022-08-20T01:15:31.142Z,20.87
2022-08-20T01:18:01.919Z,20.93
2022-08-20T01:20:33.659Z,20.74
2022-08-20T01:23:27.946Z,20.69
2022-08-20T01:26:06.034Z,20.48
2022-08-20T01:28:37.766Z,20.44
2022-08-20T01:31:12.177Z,20.35
2022-08-20T01:33:39.140Z,20.35
2022-08-20T01:36:06.643Z,20.29
2022-08-20T01:38:34.222Z,20.28
2022-08-20T01:41:43.866Z,20.20
2022-08-20T01:44:14.324Z,20.24
2022-08-20T01:46:47.207Z,20.29
2022-08-20T01:49:23.041Z,20.28
2022-08-20T01:51:52.261Z,20.24
2022-08-20T01:54:20.284Z,20.21
2022-08-20T01:57:11.938Z,20.23
2022-08-20T01:59:40.071Z,20.16
2022-08-20T02:02:07.319Z,20.20
2022-08-20T02:04:34.961Z,20.26
2022-08-20T02:07:04.959Z,20.26
2022-08-20T02:09:36.258Z,20.25
2022-08-20T02:12:04.507Z,20.27
2022-08-20T02:14:31.096Z,20.29
2022-08-20T02:16:59.018Z,20.30
2022-08-20T02:19:34.939Z,20.31
2022-08-20T02:22:08.627Z,20.31
2022-08-20T02:24:35.488Z,20.32
2022-08-20T02:27:02.028Z,20.30
2022-08-20T02:29:28.636Z,20.29
2022-08-20T02:32:32.290Z,20.22
2022-08-20T02:34:42.129Z,20.19
2022-08-20T02:37:09.664Z,20.24
2022-08-20T02:39:36.317Z,20.20
2022-08-20T02:42:03.927Z,20.19
2022-08-20T02:44:31.235Z,20.19
2022-08-20T02:46:58.411Z,20.19
2022-08-20T02:49:24.953Z,20.21
2022-08-20T02:51:51.709Z,20.15
2022-08-20T02:54:18.651Z,20.14
2022-08-20T02:56:45.246Z,19.94
2022-08-20T02:59:12.515Z,19.98
2022-08-20T03:01:45.726Z,20.02
2022-08-20T03:04:12.327Z,20.03
2022-08-20T03:06:38.904Z,19.98
2022-08-20T03:09:07.718Z,19.85
2022-08-20T03:11:34.963Z,19.88
2022-08-20T03:14:02.348Z,19.92
2022-08-20T03:16:28.939Z,19.97
2022-08-20T03:18:55.826Z,19.93
2022-08-20T03:21:22.585Z,19.66
2022-08-20T03:23:49.306Z,19.67
2022-08-20T03:26:16.535Z,19.78
2022-08-20T03:28:43.536Z,19.90
2022-08-20T03:31:10.903Z,20.08
2022-08-20T03:33:48.847Z,20.05
2022-08-20T03:36:24.206Z,20.01
2022-08-20T03:38:57.883Z,19.98
2022-08-20T03:41:25.314Z,20.18
2022-08-20T03:43:51.924Z,20.27
2022-08-20T03:46:22.937Z,20.20
2022-08-20T03:49:00.031Z,20.19
2022-08-20T03:51:29.419Z,20.14
2022-08-20T03:53:56.069Z,20.06
2022-08-20T03:56:22.619Z,20.33
2022-08-20T03:58:49.274Z,20.56
2022-08-20T04:01:45.079Z,20.74
2022-08-20T04:04:02.486Z,20.55
2022-08-20T04:06:30.428Z,20.74
2022-08-20T04:08:57.485Z,20.76
2022-08-20T04:11:24.430Z,20.65
2022-08-20T04:13:51.331Z,21.06
2022-08-20T04:16:19.330Z,21.44
2022-08-20T04:19:01.878Z,21.45
2022-08-20T04:21:32.518Z,21.37
2022-08-20T04:24:00.846Z,21.18
2022-08-20T04:26:27.426Z,20.93
2022-08-20T04:28:55.486Z,20.69
2022-08-20T04:31:25.296Z,20.59
2022-08-20T04:33:52.094Z,20.62
2022-08-20T04:36:18.631Z,20.88
2022-08-20T04:38:50.095Z,20.82
2022-08-20T04:41:21.025Z,20.72
2022-08-20T04:43:50.243Z,20.72
2022-08-20T04:46:17.070Z,20.82
2022-08-20T04:48:48.893Z,20.77
2022-08-20T04:51:16.982Z,20.66
2022-08-20T04:53:50.384Z,20.70
2022-08-20T04:56:23.897Z,20.75
2022-08-20T04:58:52.375Z,20.70
2022-08-20T05:01:19.405Z,20.49
2022-08-20T05:03:48.863Z,20.78
2022-08-20T05:06:17.782Z,20.90
2022-08-20T05:08:45.407Z,21.04
2022-08-20T05:11:35.357Z,20.95
2022-08-20T05:13:59.086Z,21.18
2022-08-20T05:16:27.078Z,21.26
2022-08-20T05:18:53.627Z,21.35
2022-08-20T05:21:20.812Z,21.37
2022-08-20T05:23:47.561Z,21.39
2022-08-20T05:26:16.035Z,21.43
2022-08-20T05:28:54.123Z,21.42
2022-08-20T05:31:31.754Z,21.45
2022-08-20T05:34:09.723Z,21.52
2022-08-20T05:36:40.090Z,21.54
2022-08-20T05:39:06.979Z,21.43
2022-08-20T05:41:33.993Z,21.38
2022-08-20T05:44:01.605Z,21.48
2022-08-20T05:46:31.336Z,21.49
2022-08-20T05:49:00.017Z,21.58
2022-08-20T05:51:28.348Z,21.70
2022-08-20T05:53:57.418Z,21.83
2022-08-20T05:56:26.896Z,21.98
2022-08-20T05:58:53.784Z,21.88
2022-08-20T06:01:20.396Z,21.90
2022-08-20T06:04:05.574Z,22.21
2022-08-20T06:06:45.700Z,22.60
2022-08-20T06:09:14.743Z,22.47
2022-08-20T06:11:41.263Z,22.33
2022-08-20T06:14:07.853Z,22.19
2022-08-20T06:16:34.487Z,22.21
2022-08-20T06:19:04.710Z,22.16
2022-08-20T06:21:31.768Z,22.08
2022-08-20T06:24:01.114Z,22.08
2022-08-20T06:26:30.046Z,22.09
2022-08-20T06:28:57.311Z,22.00
2022-08-20T06:31:24.382Z,21.93
2022-08-20T06:33:50.900Z,22.00
2022-08-20T06:36:19.042Z,21.88
2022-08-20T06:38:46.432Z,21.86
2022-08-20T06:41:14.046Z,21.91
2022-08-20T06:43:40.819Z,22.02
2022-08-20T06:46:07.805Z,22.07
2022-08-20T06:48:34.834Z,22.12
2022-08-20T06:51:01.676Z,22.11
2022-08-20T06:53:29.082Z,22.13
2022-08-20T06:55:58.907Z,22.09
2022-08-20T06:58:37.322Z,22.13
2022-08-20T07:01:10.742Z,22.10
2022-08-20T07:03:39.146Z,22.09
2022-08-20T07:06:06.731Z,21.98
2022-08-20T07:08:34.034Z,21.86
2022-08-20T07:11:00.829Z,21.85
2022-08-20T07:13:28.783Z,21.77
2022-08-20T07:15:56.163Z,21.77
2022-08-20T07:18:28.847Z,21.75
2022-08-20T07:20:57.351Z,21.77
2022-08-20T07:23:27.401Z,21.76
2022-08-20T07:25:55.673Z,21.75
2022-08-20T07:28:24.712Z,21.78
2022-08-20T07:31:13.855Z,21.80
2022-08-20T07:33:44.532Z,21.77
2022-08-20T07:36:12.647Z,21.68
2022-08-20T07:38:39.324Z,21.63
2022-08-20T07:41:10.003Z,21.58
2022-08-20T07:43:36.703Z,21.55
2022-08-20T07:46:08.974Z,21.46
2022-08-20T07:48:46.271Z,21.29
2022-08-20T07:51:17.102Z,21.10
2022-08-20T07:53:46.708Z,21.00
2022-08-20T07:56:19.361Z,20.85
2022-08-20T07:58:50.123Z,20.69
2022-08-20T08:01:25.844Z,20.56
2022-08-20T08:03:52.992Z,20.47
2022-08-20T08:06:29.394Z,20.21
2022-08-20T08:09:06.924Z,20.04
2022-08-20T08:11:37.624Z,19.92
2022-08-20T08:14:06.890Z,19.85
2022-08-20T08:16:35.113Z,19.73
2022-08-20T08:19:04.754Z,19.64
2022-08-20T08:21:31.455Z,19.75
2022-08-20T08:23:58.526Z,19.75
2022-08-20T08:26:26.279Z,19.82
2022-08-20T08:28:52.810Z,19.78
2022-08-20T08:31:19.375Z,19.62
2022-08-20T08:33:46.385Z,19.57
2022-08-20T08:36:15.419Z,19.47
2022-08-20T08:38:45.222Z,19.47
2022-08-20T08:41:14.698Z,19.53
2022-08-20T08:43:45.514Z,19.65
2022-08-20T08:46:13.688Z,19.73
2022-08-20T08:48:47.131Z,19.84
2022-08-20T08:51:18.962Z,19.94
2022-08-20T08:53:54.787Z,19.93
2022-08-20T08:56:28.476Z,20.02
2022-08-20T08:59:00.489Z,20.05
2022-08-20T09:01:54.243Z,20.10
2022-08-20T09:04:17.742Z,20.16
2022-08-20T09:06:52.957Z,20.15
2022-08-20T09:09:24.810Z,20.15
2022-08-20T09:11:55.170Z,20.16
2022-08-20T09:14:24.880Z,20.12
2022-08-20T09:16:53.476Z,20.05
2022-08-20T09:19:21.329Z,20.04
2022-08-20T09:21:48.227Z,20.09
2022-08-20T09:24:14.762Z,20.13
2022-08-20T09:26:41.379Z,20.15
2022-08-20T09:29:08.036Z,20.16
2022-08-20T09:31:35.317Z,20.11
2022-08-20T09:34:03.965Z,20.10
2022-08-20T09:36:32.528Z,20.05
2022-08-20T09:39:00.582Z,20.08
2022-08-20T09:41:31.219Z,20.04
2022-08-20T09:44:00.521Z,20.01
2022-08-20T09:46:27.686Z,20.01
2022-08-20T09:48:54.865Z,19.96
2022-08-20T09:51:21.985Z,20.01
2022-08-20T09:53:49.109Z,20.02
2022-08-20T09:56:16.912Z,19.99
2022-08-20T09:58:50.038Z,20.02
2022-08-20T10:01:19.573Z,19.99
2022-08-20T10:03:48.939Z,20.05
2022-08-20T10:06:20.181Z,20.15
2022-08-20T10:08:47.283Z,20.20
2022-08-20T10:11:13.794Z,20.38
2022-08-20T10:13:40.366Z,20.56
2022-08-20T10:16:07.295Z,20.73
2022-08-20T10:18:34.974Z,21.01
2022-08-20T10:21:01.534Z,21.29
2022-08-20T10:23:28.170Z,21.56
2022-08-20T10:25:54.723Z,21.81
2022-08-20T10:28:21.242Z,21.95
2022-08-20T10:30:47.872Z,22.00
2022-08-20T10:33:14.458Z,22.05
2022-08-20T10:35:41.046Z,22.11
2022-08-20T10:38:07.588Z,22.20
2022-08-20T10:40:34.110Z,22.29
2022-08-20T10:43:00.770Z,22.42
2022-08-20T10:45:27.463Z,22.56
2022-08-20T10:47:54.068Z,22.52
2022-08-20T10:50:20.957Z,22.51
2022-08-20T10:52:47.612Z,22.56
2022-08-20T10:55:14.735Z,22.59
2022-08-20T10:57:43.424Z,22.53
2022-08-20T11:00:15.089Z,22.66
2022-08-20T11:02:41.630Z,22.78
2022-08-20T11:05:09.129Z,22.88
2022-08-20T11:07:50.506Z,23.00
2022-08-20T11:10:25.189Z,23.07
2022-08-20T11:12:51.752Z,23.22
2022-08-20T11:15:18.523Z,23.40
2022-08-20T11:17:45.708Z,23.63
2022-08-20T11:20:14.875Z,23.82
2022-08-20T11:22:41.447Z,23.98
2022-08-20T11:25:09.283Z,24.20
2022-08-20T11:27:48.302Z,24.34
2022-08-20T11:30:19.623Z,24.47
2022-08-20T11:32:46.179Z,24.59
2022-08-20T11:35:41.090Z,24.62
2022-08-20T11:38:01.099Z,24.68
2022-08-20T11:40:29.383Z,24.57
2022-08-20T11:43:14.282Z,24.40
2022-08-20T11:45:41.598Z,24.27
2022-08-20T11:48:08.140Z,24.22
2022-08-20T11:50:34.711Z,24.13
2022-08-20T11:53:01.796Z,24.03
2022-08-20T11:55:30.388Z,24.06
2022-08-20T11:57:59.877Z,24.04
2022-08-20T12:00:32.991Z,24.12
2022-08-20T12:03:01.490Z,24.10
2022-08-20T12:05:29.789Z,24.16
2022-08-20T12:07:57.868Z,24.29
2022-08-20T12:10:26.811Z,24.27
2022-08-20T12:12:54.336Z,24.30
2022-08-20T12:15:21.006Z,24.14
2022-08-20T12:17:47.839Z,24.17
2022-08-20T12:20:15.563Z,24.12
2022-08-20T12:22:42.338Z,24.08
2022-08-20T12:25:09.428Z,24.11
2022-08-20T12:27:37.290Z,24.08
2022-08-20T12:30:11.070Z,24.07
2022-08-20T12:32:37.650Z,23.99
2022-08-20T12:35:06.747Z,24.02
2022-08-20T12:37:33.564Z,24.07
2022-08-20T12:40:02.078Z,24.08
2022-08-20T12:42:31.666Z,24.12
2022-08-20T12:44:59.698Z,24.19
2022-08-20T12:47:35.166Z,24.19
2022-08-20T12:50:09.295Z,24.20
2022-08-20T12:52:36.459Z,24.33
2022-08-20T12:55:05.078Z,24.35
2022-08-20T12:57:34.850Z,24.41
2022-08-20T13:00:08.628Z,24.41
2022-08-20T13:02:35.501Z,24.39
2022-08-20T13:05:04.943Z,24.36
2022-08-20T13:07:33.070Z,24.42
2022-08-20T13:09:59.996Z,24.45
2022-08-20T13:12:27.028Z,24.41
2022-08-20T13:14:53.546Z,24.37
2022-08-20T13:17:20.367Z,24.32
2022-08-20T13:20:00.199Z,24.39
2022-08-20T13:22:26.824Z,24.38
2022-08-20T13:24:53.809Z,24.37
2022-08-20T13:27:22.611Z,24.41
2022-08-20T13:29:53.997Z,24.36
2022-08-20T13:32:23.571Z,24.43
2022-08-20T13:34:51.668Z,24.41
2022-08-20T13:37:25.078Z,24.42
2022-08-20T13:39:53.425Z,24.46
2022-08-20T13:42:20.227Z,24.44
2022-08-20T13:44:46.811Z,24.43
2022-08-20T13:47:18.447Z,24.48
2022-08-20T13:49:45.540Z,24.51
2022-08-20T13:52:12.572Z,24.60
2022-08-20T13:54:43.672Z,24.60
2022-08-20T13:57:13.605Z,24.62
2022-08-20T13:59:43.453Z,24.57
2022-08-20T14:02:11.769Z,24.66
2022-08-20T14:04:40.218Z,24.60
2022-08-20T14:07:15.831Z,24.57
2022-08-20T14:09:45.067Z,24.64
2022-08-20T14:12:13.335Z,24.73
2022-08-20T14:14:40.724Z,24.68
2022-08-20T14:17:26.833Z,24.64
2022-08-20T14:20:00.904Z,24.68
2022-08-20T14:22:29.106Z,24.70
2022-08-20T14:24:56.540Z,24.79
2022-08-20T14:27:27.791Z,24.84
2022-08-20T14:29:58.146Z,24.94
2022-08-20T14:32:24.813Z,24.92
2022-08-20T14:34:51.446Z,24.99
2022-08-20T14:37:21.265Z,25.01
2022-08-20T14:39:51.282Z,24.99
2022-08-20T14:42:18.272Z,24.97
2022-08-20T14:44:44.983Z,24.73
2022-08-20T14:47:14.711Z,24.59
2022-08-20T14:49:41.355Z,24.58
2022-08-20T14:52:08.067Z,24.56
2022-08-20T14:54:35.312Z,24.55
2022-08-20T14:57:02.321Z,24.58
2022-08-20T14:59:29.307Z,24.55
2022-08-20T15:01:56.127Z,24.62
2022-08-20T15:04:23.905Z,24.62
2022-08-20T15:06:53.307Z,24.56
2022-08-20T15:09:21.282Z,24.52
2022-08-20T15:11:47.855Z,24.33
2022-08-20T15:14:15.060Z,24.35
2022-08-20T15:16:45.050Z,24.23
2022-08-20T15:19:11.712Z,24.22
2022-08-20T15:21:44.981Z,24.12
2022-08-20T15:24:19.359Z,24.04
2022-08-20T15:26:46.078Z,23.89
2022-08-20T15:29:12.794Z,23.82
2022-08-20T15:31:49.755Z,23.82
2022-08-20T15:34:17.823Z,23.67
2022-08-20T15:36:45.180Z,23.71
2022-08-20T15:39:11.855Z,23.65
2022-08-20T15:41:38.394Z,23.68
2022-08-20T15:44:04.986Z,23.62
2022-08-20T15:46:36.174Z,23.70
2022-08-20T15:49:11.344Z,23.63
2022-08-20T15:51:46.533Z,23.64
2022-08-20T15:54:22.106Z,23.72
2022-08-20T15:57:02.882Z,23.70
2022-08-20T15:59:53.771Z,23.68
2022-08-20T16:02:38.943Z,23.76
2022-08-20T16:05:11.448Z,23.73
2022-08-20T16:07:58.671Z,23.68
2022-08-20T16:10:41.017Z,23.68
2022-08-20T16:13:19.327Z,23.62
2022-08-20T16:15:49.410Z,23.74
2022-08-20T16:18:23.075Z,23.69
2022-08-20T16:20:53.634Z,23.68
2022-08-20T16:23:27.989Z,23.71
2022-08-20T16:26:12.635Z,23.80
2022-08-20T16:28:57.461Z,23.92
2022-08-20T16:31:29.450Z,23.97
2022-08-20T16:34:28.176Z,24.06
2022-08-20T16:37:25.389Z,23.90
2022-08-20T16:40:13.357Z,23.93
2022-08-20T16:42:43.957Z,23.93
2022-08-20T16:45:19.297Z,23.92
2022-08-20T16:47:46.451Z,23.85
2022-08-20T16:50:23.964Z,23.88
2022-08-20T16:52:51.765Z,23.83
2022-08-20T16:55:22.066Z,23.77
2022-08-20T16:57:49.304Z,23.70
2022-08-20T17:00:30.393Z,23.52
2022-08-20T17:02:59.537Z,23.49
2022-08-20T17:05:49.834Z,23.44
2022-08-20T17:08:31.118Z,23.43
2022-08-20T17:11:13.126Z,23.39
2022-08-20T17:13:42.690Z,23.20
2022-08-20T17:16:14.916Z,22.93
2022-08-20T17:18:53.311Z,22.94
2022-08-20T17:21:28.138Z,22.97
2022-08-20T17:24:09.616Z,22.93
2022-08-20T17:26:47.823Z,22.79
2022-08-20T17:29:20.420Z,22.77
2022-08-20T17:31:56.451Z,22.60
2022-08-20T17:34:30.104Z,22.55
2022-08-20T17:37:10.917Z,22.33
2022-08-20T17:39:46.708Z,22.32
2022-08-20T17:42:22.782Z,22.28
2022-08-20T17:45:15.510Z,22.27
2022-08-20T17:47:43.960Z,22.14
2022-08-20T17:50:18.615Z,22.08
2022-08-20T17:52:56.078Z,22.06
2022-08-20T17:55:23.710Z,22.00
2022-08-20T17:57:56.566Z,21.94
2022-08-20T18:00:26.149Z,21.88
2022-08-20T18:03:20.857Z,21.77
2022-08-20T18:05:50.370Z,21.76
2022-08-20T18:08:40.907Z,21.75
2022-08-20T18:11:16.389Z,21.59
2022-08-20T18:13:57.916Z,21.54
2022-08-20T18:16:45.500Z,21.45
2022-08-20T18:19:33.758Z,21.39
2022-08-20T18:22:13.270Z,21.32
2022-08-20T18:24:48.757Z,21.27
2022-08-20T18:27:18.717Z,21.13
2022-08-20T18:29:52.312Z,21.15
2022-08-20T18:32:29.571Z,21.15
2022-08-20T18:35:08.514Z,21.12
2022-08-20T18:37:35.251Z,21.12
2022-08-20T18:40:17.078Z,21.06
2022-08-20T18:42:45.785Z,21.01
2022-08-20T18:45:12.802Z,20.97
2022-08-20T18:47:45.166Z,20.86
2022-08-20T18:50:36.422Z,20.75
2022-08-20T18:53:16.927Z,20.82
2022-08-20T18:56:27.326Z,20.69
2022-08-20T18:59:22.986Z,20.62
2022-08-20T19:01:50.023Z,20.53
2022-08-20T19:04:31.961Z,20.58
2022-08-20T19:07:10.199Z,20.61
2022-08-20T19:09:52.228Z,20.63
2022-08-20T19:12:27.779Z,20.62
2022-08-20T19:14:57.222Z,20.56
2022-08-20T19:17:35.194Z,20.43
2022-08-20T19:20:16.890Z,20.45
2022-08-20T19:22:44.665Z,20.42
2022-08-20T19:25:54.218Z,20.34
2022-08-20T19:28:31.913Z,20.07
2022-08-20T19:31:20.884Z,19.96
2022-08-20T19:33:48.468Z,19.98
2022-08-20T19:36:28.396Z,20.01
2022-08-20T19:38:58.305Z,20.07
2022-08-20T19:41:31.447Z,20.04
2022-08-20T19:43:59.818Z,20.01
2022-08-20T19:46:33.879Z,20.01
2022-08-20T19:49:15.774Z,20.02
2022-08-20T19:52:00.207Z,19.98
2022-08-20T19:54:29.442Z,19.91
2022-08-20T19:56:57.818Z,19.88
2022-08-20T19:59:25.267Z,19.83
2022-08-20T20:02:02.494Z,19.82
2022-08-20T20:04:37.629Z,19.84
2022-08-20T20:07:15.722Z,19.88
2022-08-20T20:09:42.595Z,19.85
2022-08-20T20:12:22.838Z,19.92
2022-08-20T20:14:52.520Z,19.97
2022-08-20T20:17:24.758Z,20.01
2022-08-20T20:19:56.849Z,20.01
2022-08-20T20:22:33.107Z,20.04
2022-08-20T20:25:20.015Z,20.04
2022-08-20T20:27:52.326Z,20.05
2022-08-20T20:30:28.686Z,20.06
2022-08-20T20:32:58.240Z,20.10
2022-08-20T20:35:34.201Z,20.10
2022-08-20T20:38:07.960Z,20.14
2022-08-20T20:40:45.709Z,20.10
2022-08-20T20:43:24.310Z,20.08
2022-08-20T20:46:02.492Z,20.09
2022-08-20T20:48:40.218Z,20.07
2022-08-20T20:51:30.849Z,20.04
2022-08-20T20:54:02.420Z,20.08
2022-08-20T20:56:51.262Z,20.09
2022-08-20T20:59:17.782Z,20.08
2022-08-20T21:01:48.151Z,20.09
2022-08-20T21:04:19.051Z,20.13
2022-08-20T21:06:46.093Z,20.09
2022-08-20T21:09:13.428Z,20.09
2022-08-20T21:11:39.975Z,20.08
2022-08-20T21:14:06.782Z,20.09
2022-08-20T21:16:33.391Z,20.09
2022-08-20T21:19:05.568Z,20.10
2022-08-20T21:21:32.354Z,20.04
2022-08-20T21:23:59.120Z,20.07
2022-08-20T21:26:27.870Z,20.03
2022-08-20T21:28:54.615Z,20.05
2022-08-20T21:31:21.412Z,20.00
2022-08-20T21:33:49.017Z,19.95
2022-08-20T21:36:16.025Z,19.91
2022-08-20T21:38:42.571Z,19.91
2022-08-20T21:41:09.354Z,19.88
2022-08-20T21:43:35.889Z,19.87
2022-08-20T21:46:04.095Z,19.86
2022-08-20T21:48:32.335Z,19.78
2022-08-20T21:50:58.869Z,19.79
2022-08-20T21:53:25.428Z,19.83
2022-08-20T21:55:52.062Z,19.82
2022-08-20T21:58:19.668Z,19.83
2022-08-20T22:00:50.910Z,19.79
2022-08-20T22:03:19.978Z,19.73
2022-08-20T22:05:47.463Z,19.73
2022-08-20T22:08:14.091Z,19.74
2022-08-20T22:10:40.665Z,19.74
2022-08-20T22:13:07.388Z,19.70
2022-08-20T22:15:34.334Z,19.63
2022-08-20T22:18:01.145Z,19.67
2022-08-20T22:20:27.892Z,19.70
2022-08-20T22:22:54.973Z,19.72
2022-08-20T22:25:21.524Z,19.76
2022-08-20T22:27:48.048Z,19.77
2022-08-20T22:30:14.799Z,19.80
2022-08-20T22:32:51.647Z,19.82
2022-08-20T22:35:19.522Z,19.83
2022-08-20T22:37:46.264Z,19.80
2022-08-20T22:40:13.027Z,19.82
2022-08-20T22:42:39.651Z,19.82
2022-08-20T22:45:11.544Z,19.79
2022-08-20T22:47:42.315Z,19.81
2022-08-20T22:50:10.187Z,19.76
2022-08-20T22:52:39.475Z,19.75
2022-08-20T22:55:06.828Z,19.71
2022-08-20T22:57:34.239Z,19.68
2022-08-20T23:00:01.078Z,19.70
2022-08-20T23:02:27.717Z,19.76
2022-08-20T23:04:54.306Z,19.78
2022-08-20T23:07:21.001Z,19.80
2022-08-20T23:09:47.564Z,19.80
2022-08-20T23:12:14.110Z,19.78
2022-08-20T23:14:40.902Z,19.78
2022-08-20T23:17:13.639Z,19.80
2022-08-20T23:19:41.827Z,19.80
2022-08-20T23:22:08.668Z,19.81
2022-08-20T23:24:35.547Z,19.79
2022-08-20T23:27:03.332Z,19.78
2022-08-20T23:29:30.678Z,19.78
2022-08-20T23:31:58.376Z,19.73
2022-08-20T23:34:25.965Z,19.74
2022-08-20T23:36:53.983Z,19.68
2022-08-20T23:39:20.584Z,19.62
2022-08-20T23:41:48.091Z,19.66
2022-08-20T23:44:26.067Z,19.60
2022-08-20T23:46:55.095Z,19.59
2022-08-20T23:49:21.755Z,19.62
2022-08-20T23:51:48.347Z,19.67
2022-08-20T23:54:14.970Z,19.67
2022-08-20T23:56:41.617Z,19.59
2022-08-20T23:59:08.171Z,19.53
